This is the latest recevied weather packets stored in our database for station/object LA5PPA-1. If no packets are shown the sender has not sent any weather packets the latest 1 day(s).
| Time | Temp. | Humidity | Pressure | Rain* | Wind** | Luminosity | Snow |
|---|---|---|---|---|---|---|---|
| 1777990437 | 1.11° C | 44% | 1014.3 hPa | 0 mm | 0.89 m/s, 327° | - | - |
| 1777990316 | 1.11° C | 44% | 1014.3 hPa | 0 mm | 2.24 m/s, 302° | - | - |
| 1777990016 | 0.56° C | 46% | 1014.3 hPa | 0 mm | 2.24 m/s, 307° | - | - |
| 1777989777 | 1.11° C | 46% | 1014.1 hPa | 0 mm | 1.34 m/s, 300° | - | - |
| 1777989716 | 1.11° C | 44% | 1014.3 hPa | 0 mm | 1.79 m/s, 288° | - | - |
| 1777989416 | 1.67° C | 44% | 1014.4 hPa | 0 mm | 1.79 m/s, 319° | - | - |
| 1777989116 | 2.22° C | 45% | 1014.3 hPa | 0 mm | 2.24 m/s, 293° | - | - |
| 1777988816 | 1.67° C | 42% | 1014.3 hPa | 0 mm | 3.13 m/s, 303° | - | - |
| 1777988516 | 1.67° C | 43% | 1014.1 hPa | 0 mm | 0.45 m/s, 312° | - | - |
| 1777988216 | 1.11° C | 44% | 1014.4 hPa | 0 mm | 3.13 m/s, 285° | - | - |
| 1777987916 | 0.56° C | 46% | 1014.4 hPa | 0 mm | 1.79 m/s, 298° | - | - |
| 1777987797 | 0.56° C | 45% | 1014.4 hPa | 0 mm | 1.34 m/s, 313° | - | - |
| 1777987616 | 0.56° C | 44% | 1014.4 hPa | 0 mm | 1.34 m/s, 326° | - | - |
| 1777987316 | 0° C | 43% | 1014.4 hPa | 0 mm | 1.34 m/s, 329° | - | - |
| 1777987137 | 0° C | 41% | 1014.4 hPa | 0 mm | 2.68 m/s, 322° | - | - |
| 1777987016 | 0° C | 42% | 1014.4 hPa | 0 mm | 1.34 m/s, 322° | - | - |
| 1777986716 | 0° C | 44% | 1014.4 hPa | 0 mm | 2.24 m/s, 320° | - | - |
| 1777986477 | 0° C | 41% | 1014.3 hPa | 0 mm | 3.58 m/s, 310° | - | - |
| 1777986416 | 0° C | 40% | 1014.4 hPa | 0 mm | 1.34 m/s, 317° | - | - |
| 1777986116 | 0.56° C | 42% | 1014.3 hPa | 0 mm | 1.34 m/s, 299° | - | - |
| 1777985816 | 1.11° C | 42% | 1014.3 hPa | 0 mm | 1.79 m/s, 310° | - | - |
| 1777985516 | 1.11° C | 42% | 1014.3 hPa | 0 mm | 1.79 m/s, 278° | - | - |
| 1777985216 | 1.11° C | 42% | 1014.1 hPa | 0 mm | 0.45 m/s, 316° | - | - |
| 1777985157 | 1.11° C | 41% | 1014.1 hPa | 0 mm | 0 m/s | - | - |
| 1777984916 | 1.11° C | 40% | 1014.1 hPa | 0 mm | 0.45 m/s, 315° | - | - |
* Rain latest hour (hover to see other rain measurements)
** Current wind speed in m/s (hover to see current wind gust speed)